Adel, Georgia
Current Conditions -  °F | °C
As of 3:58 PM on Friday 31 Oct 2014 (Local Time) from KVAD Reporting Station
Clear Clear  
Wind Chill: 73°   Ceiling: Unl
Heat Index: 73°   Visibility: 10mi
Dew Point: 38°   Wind: 9mph
Humidity: 28%   Direction: 330°NNW
Pressure: 29.83"   Gusts: NA
Location:  31.14°N, 83.42°W
Report Text: KVAD 311958Z AUTO 33008KT 10SM CLR 23/03 A2983 RMK AO2 SLP103 T02250031 $
Loading
Personal Weather Stations






























Interactive Weather Map
Tropical Storm Tracking
New forecast layout! Learn more

10-Day Weather Forecast

Advertisements
Track Severe Weather on mobile